createdAt,value
2019-04-21T00:02:08.603Z,72.43
2019-04-21T00:04:49.801Z,71.07
2019-04-21T00:07:34.617Z,75.97
2019-04-21T00:10:16.747Z,71.90
2019-04-21T00:12:43.096Z,71.27
2019-04-21T00:15:06.123Z,68.90
2019-04-21T00:17:31.626Z,77.10
2019-04-21T00:20:17.600Z,74.03
2019-04-21T00:22:52.061Z,70.17
2019-04-21T00:25:27.452Z,82.80
2019-04-21T00:28:09.297Z,89.23
2019-04-21T00:30:39.831Z,82.53
2019-04-21T00:33:04.340Z,87.80
2019-04-21T00:35:29.410Z,84.37
2019-04-21T00:38:25.115Z,83.77
2019-04-21T00:43:23.999Z,82.77
2019-04-21T00:45:51.910Z,84.27
2019-04-21T00:48:36.484Z,84.60
2019-04-21T00:51:30.268Z,83.58
2019-04-21T00:53:57.897Z,77.97
2019-04-21T00:56:21.277Z,77.13
2019-04-21T00:58:59.294Z,86.77
2019-04-21T01:01:25.259Z,85.63
2019-04-21T01:04:02.204Z,80.92
2019-04-21T01:06:36.905Z,87.05
2019-04-21T01:09:07.653Z,70.33
2019-04-21T01:11:47.461Z,91.27
2019-04-21T01:14:21.950Z,82.77
2019-04-21T01:16:51.996Z,78.67
2019-04-21T01:19:23.787Z,77.20
2019-04-21T01:21:36.268Z,76.80
2019-04-21T01:24:15.905Z,86.37
2019-04-21T01:26:52.479Z,86.27
2019-04-21T01:29:36.885Z,82.02
2019-04-21T01:32:12.847Z,79.07
2019-04-21T01:34:39.432Z,77.05
2019-04-21T01:39:51.502Z,77.77
2019-04-21T01:42:22.275Z,80.42
2019-04-21T01:44:53.515Z,83.97
2019-04-21T01:47:25.775Z,87.95
2019-04-21T01:49:54.593Z,84.37
2019-04-21T01:52:48.538Z,98.72
2019-04-21T01:55:27.821Z,94.57
2019-04-21T01:58:00.479Z,105.63
2019-04-21T02:00:54.337Z,96.57
2019-04-21T02:03:46.700Z,93.00
2019-04-21T02:06:14.900Z,104.47
2019-04-21T02:08:36.498Z,94.37
2019-04-21T02:13:54.382Z,78.93
2019-04-21T02:16:18.216Z,75.97
2019-04-21T02:18:49.445Z,74.50
2019-04-21T02:21:21.810Z,77.30
2019-04-21T02:24:05.353Z,74.50
2019-04-21T02:26:37.616Z,74.40
2019-04-21T02:29:29.458Z,73.17
2019-04-21T02:31:55.392Z,77.03
2019-04-21T02:34:23.547Z,79.40
2019-04-21T02:39:57.702Z,65.57
2019-04-21T02:42:31.993Z,97.53
2019-04-21T02:45:00.379Z,97.35
2019-04-21T02:50:09.664Z,87.65
2019-04-21T02:52:53.954Z,87.15
2019-04-21T02:55:11.290Z,92.50
2019-04-21T02:57:52.034Z,96.60
2019-04-21T03:00:34.602Z,99.43
2019-04-21T03:03:06.983Z,86.77
2019-04-21T03:06:02.400Z,97.00
2019-04-21T03:13:57.279Z,91.75
2019-04-21T03:16:17.016Z,91.23
2019-04-21T03:21:19.091Z,63.10
2019-04-21T03:39:07.704Z,83.50
2019-04-21T03:41:56.790Z,65.15
2019-04-21T03:52:08.441Z,83.10
2019-04-21T03:54:41.572Z,83.37
2019-04-21T03:59:48.922Z,87.97
2019-04-21T04:02:23.078Z,86.57
2019-04-21T04:04:53.505Z,88.93
2019-04-21T04:07:51.733Z,81.80
2019-04-21T04:12:50.474Z,93.00
2019-04-21T04:15:20.494Z,95.50
2019-04-21T04:17:46.778Z,93.67
2019-04-21T04:20:28.677Z,89.03
2019-04-21T04:23:03.333Z,94.50
2019-04-21T04:28:10.191Z,86.97
2019-04-21T04:33:22.786Z,99.28
2019-04-21T04:36:01.682Z,90.37
2019-04-21T04:41:06.368Z,82.30
2019-04-21T04:43:37.148Z,78.07
2019-04-21T04:48:43.328Z,82.37
2019-04-21T04:53:47.069Z,90.13
2019-04-21T04:56:18.315Z,82.67
2019-04-21T05:01:54.840Z,84.93
2019-04-21T05:04:05.882Z,91.02
2019-04-21T05:06:42.702Z,95.38
2019-04-21T05:19:41.485Z,60.60
2019-04-21T05:22:14.270Z,57.83
2019-04-21T05:26:50.757Z,40.88
2019-04-21T05:29:31.030Z,35.95
2019-04-21T05:32:13.361Z,33.25
2019-04-21T05:34:50.683Z,34.53
2019-04-21T05:37:35.428Z,32.50
2019-04-21T05:40:06.808Z,35.05
2019-04-21T05:42:43.888Z,34.55
2019-04-21T05:45:22.842Z,32.48
2019-04-21T05:48:04.746Z,32.65
2019-04-21T05:50:30.446Z,34.38
2019-04-21T05:52:58.792Z,29.75
2019-04-21T05:55:43.533Z,29.55
2019-04-21T05:58:12.683Z,28.73
2019-04-21T06:08:38.952Z,19.98
2019-04-21T06:11:13.190Z,21.00
2019-04-21T06:13:55.058Z,19.43
2019-04-21T06:16:21.512Z,16.05
2019-04-21T06:21:28.021Z,14.05
2019-04-21T06:24:06.875Z,10.03
2019-04-21T06:29:10.240Z,8.47
2019-04-21T06:32:12.633Z,11.55
2019-04-21T06:34:17.292Z,7.33
2019-04-21T06:37:07.846Z,8.00
2019-04-21T06:39:40.522Z,7.95
2019-04-21T06:42:09.782Z,8.55
2019-04-21T06:44:48.451Z,8.13
2019-04-21T06:47:26.632Z,5.93
2019-04-21T06:49:52.411Z,9.13
2019-04-21T06:52:42.379Z,8.45
2019-04-21T06:54:57.122Z,7.67
2019-04-21T07:00:03.492Z,6.83
2019-04-21T07:02:42.466Z,4.85
2019-04-21T07:05:07.898Z,4.70
2019-04-21T07:07:43.312Z,8.90
2019-04-21T07:10:14.315Z,5.93
2019-04-21T07:12:45.314Z,7.87
2019-04-21T07:15:27.974Z,6.17
2019-04-21T07:17:57.989Z,7.45
2019-04-21T07:20:28.196Z,8.63
2019-04-21T07:25:39.031Z,8.88
2019-04-21T07:28:15.586Z,5.70
2019-04-21T07:30:43.636Z,5.50
2019-04-21T07:33:45.013Z,6.47
2019-04-21T07:35:51.771Z,5.12
2019-04-21T07:38:25.658Z,7.30
2019-04-21T07:40:54.226Z,5.08
2019-04-21T07:43:24.587Z,6.12
2019-04-21T07:45:58.619Z,6.03
2019-04-21T07:48:46.129Z,6.87
2019-04-21T07:51:20.711Z,5.72
2019-04-21T07:56:11.949Z,4.78
2019-04-21T08:01:42.371Z,5.10
2019-04-21T08:04:22.232Z,5.30
2019-04-21T08:06:40.805Z,6.70
2019-04-21T08:09:12.547Z,6.25
2019-04-21T08:11:41.655Z,5.22
2019-04-21T08:14:24.301Z,6.60
2019-04-21T08:17:01.020Z,9.63
2019-04-21T08:19:32.463Z,8.13
2019-04-21T08:22:25.672Z,5.62
2019-04-21T08:24:59.486Z,6.40
2019-04-21T08:27:37.010Z,6.00
2019-04-21T08:30:04.464Z,7.62
2019-04-21T08:32:55.929Z,5.95
2019-04-21T08:35:34.665Z,6.37
2019-04-21T08:37:44.975Z,7.40
2019-04-21T08:42:52.367Z,6.50
2019-04-21T08:45:28.149Z,7.60
2019-04-21T08:48:05.861Z,6.90
2019-04-21T08:50:31.021Z,6.30
2019-04-21T08:53:07.555Z,7.22
2019-04-21T08:55:58.035Z,6.40
2019-04-21T08:58:31.003Z,8.03
2019-04-21T09:01:12.228Z,7.60
2019-04-21T09:06:41.982Z,8.00
2019-04-21T09:09:07.851Z,6.00
2019-04-21T09:11:37.703Z,6.58
2019-04-21T09:14:07.281Z,5.33
2019-04-21T09:16:40.787Z,6.57
2019-04-21T09:19:20.326Z,6.65
2019-04-21T09:21:50.438Z,5.07
2019-04-21T09:24:23.398Z,6.33
2019-04-21T09:26:51.394Z,4.70
2019-04-21T09:29:23.444Z,6.85
2019-04-21T09:31:47.688Z,6.95
2019-04-21T09:34:30.096Z,6.72
2019-04-21T09:37:03.344Z,7.08
2019-04-21T09:39:29.307Z,6.33
2019-04-21T09:42:02.844Z,7.47
2019-04-21T09:44:38.222Z,7.08
2019-04-21T09:47:07.390Z,6.83
2019-04-21T09:49:41.497Z,5.58
2019-04-21T09:52:19.137Z,5.42
2019-04-21T09:54:56.466Z,6.60
2019-04-21T09:57:31.520Z,10.13
2019-04-21T10:00:02.453Z,6.97
2019-04-21T10:02:34.322Z,7.45
2019-04-21T10:05:00.118Z,7.10
2019-04-21T10:07:37.086Z,7.17
2019-04-21T10:10:08.983Z,7.53
2019-04-21T10:12:41.111Z,9.25
2019-04-21T10:15:14.202Z,9.73
2019-04-21T10:17:51.910Z,11.73
2019-04-21T10:20:24.499Z,6.60
2019-04-21T10:22:57.318Z,8.08
2019-04-21T10:25:30.540Z,9.53
2019-04-21T10:28:03.274Z,7.33
2019-04-21T10:30:36.368Z,7.72
2019-04-21T10:33:08.435Z,6.95
2019-04-21T10:35:41.334Z,5.37
2019-04-21T10:38:22.740Z,6.58
2019-04-21T10:40:47.668Z,7.67
2019-04-21T10:43:22.129Z,6.55
2019-04-21T10:45:52.873Z,6.80
2019-04-21T10:48:25.169Z,4.85
2019-04-21T10:50:57.219Z,5.30
2019-04-21T10:53:31.210Z,9.38
2019-04-21T10:56:13.453Z,6.50
2019-04-21T10:58:38.327Z,8.77
2019-04-21T11:01:14.244Z,4.75
2019-04-21T11:06:22.211Z,6.95
2019-04-21T11:08:55.727Z,9.50
2019-04-21T11:11:27.927Z,7.08
2019-04-21T11:13:59.715Z,5.12
2019-04-21T11:16:33.137Z,6.60
2019-04-21T11:19:06.184Z,6.07
2019-04-21T11:21:38.754Z,7.62
2019-04-21T11:24:10.443Z,7.03
2019-04-21T11:26:42.406Z,6.33
2019-04-21T11:29:14.933Z,8.33
2019-04-21T11:31:47.325Z,7.33
2019-04-21T11:34:19.142Z,7.03
2019-04-21T11:36:52.164Z,6.55
2019-04-21T11:39:35.230Z,5.75
2019-04-21T11:41:59.727Z,6.55
2019-04-21T11:44:31.484Z,8.58
2019-04-21T11:47:05.013Z,7.03
2019-04-21T11:49:37.059Z,7.30
2019-04-21T11:52:09.178Z,7.35
2019-04-21T11:54:40.877Z,6.20
2019-04-21T11:57:20.508Z,5.30
2019-04-21T11:59:47.916Z,8.90
2019-04-21T12:02:19.770Z,8.95
2019-04-21T12:04:51.840Z,5.67
2019-04-21T12:07:25.046Z,9.23
2019-04-21T12:09:57.544Z,5.27
2019-04-21T12:12:29.634Z,7.53
2019-04-21T12:15:01.965Z,5.58
2019-04-21T12:17:36.159Z,7.90
2019-04-21T12:20:08.732Z,5.67
2019-04-21T12:22:41.193Z,8.13
2019-04-21T12:25:15.522Z,6.53
2019-04-21T12:27:47.867Z,8.03
2019-04-21T12:30:20.084Z,6.90
2019-04-21T12:32:58.010Z,5.72
2019-04-21T12:35:30.078Z,13.98
2019-04-21T12:38:02.798Z,7.50
2019-04-21T12:40:35.088Z,6.22
2019-04-21T12:43:06.767Z,5.90
2019-04-21T12:45:39.994Z,5.28
2019-04-21T12:48:11.692Z,7.42
2019-04-21T12:50:43.807Z,6.15
2019-04-21T12:53:17.417Z,7.03
2019-04-21T12:55:49.919Z,11.48
2019-04-21T12:58:21.835Z,7.85
2019-04-21T13:00:54.727Z,8.48
2019-04-21T13:03:28.274Z,7.53
2019-04-21T13:06:01.371Z,6.70
2019-04-21T13:08:45.639Z,5.20
2019-04-21T13:11:09.495Z,8.03
2019-04-21T13:13:42.000Z,6.10
2019-04-21T13:16:13.949Z,7.08
2019-04-21T13:18:47.121Z,7.95
2019-04-21T13:21:20.140Z,8.53
2019-04-21T13:23:52.762Z,8.88
2019-04-21T13:26:32.737Z,6.12
2019-04-21T13:28:58.387Z,7.17
2019-04-21T13:31:30.378Z,6.62
2019-04-21T13:34:02.268Z,6.45
2019-04-21T13:36:35.610Z,7.35
2019-04-21T13:39:50.692Z,6.80
2019-04-21T13:42:16.491Z,8.23
2019-04-21T13:44:41.311Z,10.08
2019-04-21T13:47:14.469Z,8.33
2019-04-21T13:52:20.630Z,8.45
2019-04-21T13:54:53.765Z,7.63
2019-04-21T13:57:26.323Z,5.58
2019-04-21T13:59:59.291Z,5.62
2019-04-21T14:02:31.538Z,5.95
2019-04-21T14:05:06.789Z,5.50
2019-04-21T14:07:38.747Z,7.60
2019-04-21T14:10:13.727Z,7.75
2019-04-21T14:12:44.541Z,6.92
2019-04-21T14:15:18.077Z,7.25
2019-04-21T14:17:50.910Z,14.18
2019-04-21T14:20:22.890Z,6.20
2019-04-21T14:22:55.776Z,6.78
2019-04-21T14:25:29.810Z,8.58
2019-04-21T14:28:02.070Z,7.75
2019-04-21T14:30:34.657Z,5.95
2019-04-21T14:33:07.816Z,6.60
2019-04-21T14:35:40.962Z,8.88
2019-04-21T14:38:14.287Z,7.35
2019-04-21T14:40:46.260Z,9.70
2019-04-21T14:43:18.467Z,8.80
2019-04-21T14:45:58.632Z,8.28
2019-04-21T14:48:45.466Z,8.85
2019-04-21T14:51:18.915Z,7.75
2019-04-21T14:53:56.296Z,9.28
2019-04-21T14:56:29.252Z,6.83
2019-04-21T14:59:02.625Z,9.73
2019-04-21T15:01:35.884Z,7.08
2019-04-21T15:04:08.033Z,10.37
2019-04-21T15:06:41.257Z,10.72
2019-04-21T15:09:13.400Z,8.60
2019-04-21T15:11:45.177Z,8.43
2019-04-21T15:14:17.849Z,8.25
2019-04-21T15:16:51.230Z,8.58
2019-04-21T15:19:24.605Z,9.15
2019-04-21T15:21:56.830Z,9.30
2019-04-21T15:24:30.029Z,11.12
2019-04-21T15:27:03.133Z,9.48
2019-04-21T15:29:35.364Z,9.13
2019-04-21T15:32:08.465Z,7.58
2019-04-21T15:34:40.326Z,8.10
2019-04-21T15:37:13.720Z,9.30
2019-04-21T15:39:46.805Z,10.60
2019-04-21T15:42:18.711Z,10.80
2019-04-21T15:44:50.553Z,7.72
2019-04-21T15:47:22.302Z,8.23
2019-04-21T15:50:03.017Z,9.03
2019-04-21T15:52:29.922Z,9.45
2019-04-21T15:55:03.405Z,8.80
2019-04-21T15:57:47.007Z,8.40
2019-04-21T16:00:30.965Z,11.45
2019-04-21T16:03:02.864Z,9.98
2019-04-21T16:05:34.849Z,9.88
2019-04-21T16:08:07.917Z,10.45
2019-04-21T16:10:48.330Z,8.38
2019-04-21T16:13:13.968Z,10.10
2019-04-21T16:15:46.316Z,9.13
2019-04-21T16:18:18.329Z,8.45
2019-04-21T16:20:51.565Z,11.10
2019-04-21T16:23:24.513Z,8.73
2019-04-21T16:25:57.043Z,7.50
2019-04-21T16:28:29.155Z,9.55
2019-04-21T16:31:02.484Z,9.48
2019-04-21T16:33:34.187Z,10.00
2019-04-21T16:36:09.677Z,9.23
2019-04-21T16:38:39.829Z,13.98
2019-04-21T16:41:12.076Z,11.30
2019-04-21T16:43:45.028Z,11.45
2019-04-21T16:46:17.896Z,14.28
2019-04-21T16:48:50.002Z,10.65
2019-04-21T16:51:24.191Z,9.88
2019-04-21T16:54:01.795Z,12.53
2019-04-21T16:56:39.516Z,9.78
2019-04-21T16:59:16.718Z,11.90
2019-04-21T17:01:48.889Z,11.97
2019-04-21T17:04:22.223Z,15.50
2019-04-21T17:06:55.382Z,13.22
2019-04-21T17:09:28.461Z,11.60
2019-04-21T17:12:05.607Z,15.83
2019-04-21T17:14:49.669Z,17.48
2019-04-21T17:17:32.669Z,19.30
2019-04-21T17:19:46.968Z,21.37
2019-04-21T17:22:15.795Z,22.30
2019-04-21T17:24:48.490Z,23.00
2019-04-21T17:27:20.839Z,23.42
2019-04-21T17:29:52.817Z,24.67
2019-04-21T17:32:32.077Z,20.60
2019-04-21T17:34:59.501Z,21.52
2019-04-21T17:37:32.406Z,24.52
2019-04-21T17:40:08.757Z,29.05
2019-04-21T17:42:46.568Z,25.90
2019-04-21T17:45:13.242Z,31.23
2019-04-21T17:47:52.428Z,38.53
2019-04-21T17:50:20.708Z,37.17
2019-04-21T17:53:10.585Z,35.52
2019-04-21T17:56:05.260Z,42.33
2019-04-21T17:58:48.701Z,40.20
2019-04-21T18:01:21.250Z,50.12
2019-04-21T18:04:01.620Z,42.55
2019-04-21T18:06:26.293Z,40.25
2019-04-21T18:09:00.861Z,45.78
2019-04-21T18:11:37.191Z,38.70
2019-04-21T18:13:47.351Z,39.83
2019-04-21T18:16:28.731Z,40.80
2019-04-21T18:18:53.011Z,50.27
2019-04-21T18:21:30.369Z,51.80
2019-04-21T18:24:10.773Z,46.25
2019-04-21T18:26:50.997Z,53.42
2019-04-21T18:29:15.961Z,67.85
2019-04-21T18:31:50.452Z,45.85
2019-04-21T18:34:43.983Z,42.05
2019-04-21T18:37:35.046Z,37.78
2019-04-21T18:40:09.711Z,58.65
2019-04-21T18:43:15.624Z,60.35
2019-04-21T18:46:03.654Z,59.10
2019-04-21T18:48:21.769Z,79.17
2019-04-21T18:50:55.375Z,95.25
2019-04-21T18:53:48.078Z,97.80
2019-04-21T18:58:51.246Z,91.22
2019-04-21T19:01:27.640Z,95.05
2019-04-21T19:03:58.198Z,87.10
2019-04-21T19:06:46.962Z,93.85
2019-04-21T19:09:32.500Z,91.40
2019-04-21T19:12:00.704Z,93.52
2019-04-21T19:17:29.139Z,92.15
2019-04-21T19:19:49.050Z,88.80
2019-04-21T19:22:13.571Z,94.15
2019-04-21T19:24:48.484Z,90.42
2019-04-21T19:27:23.734Z,90.40
2019-04-21T19:30:17.187Z,90.30
2019-04-21T19:32:25.304Z,82.97
2019-04-21T19:34:45.531Z,83.33
2019-04-21T19:37:21.949Z,83.52
2019-04-21T19:40:02.625Z,91.00
2019-04-21T19:42:36.977Z,91.00
2019-04-21T19:45:15.165Z,96.82
2019-04-21T19:47:50.361Z,97.90
2019-04-21T19:50:28.683Z,99.62
2019-04-21T19:52:53.455Z,98.42
2019-04-21T19:55:14.385Z,101.37
2019-04-21T19:57:47.107Z,97.10
2019-04-21T20:00:19.465Z,88.67
2019-04-21T20:02:52.306Z,91.05
2019-04-21T20:05:35.289Z,88.58
2019-04-21T20:08:13.724Z,87.30
2019-04-21T20:10:48.421Z,93.03
2019-04-21T20:13:35.322Z,89.25
2019-04-21T20:15:57.007Z,91.15
2019-04-21T20:18:24.503Z,99.05
2019-04-21T20:20:46.308Z,108.47
2019-04-21T20:23:24.985Z,109.33
2019-04-21T20:25:56.937Z,111.03
2019-04-21T20:28:38.533Z,100.55
2019-04-21T20:31:19.123Z,106.77
2019-04-21T20:33:52.686Z,109.10
2019-04-21T20:36:26.373Z,107.92
2019-04-21T20:38:48.665Z,116.05
2019-04-21T20:41:29.803Z,105.60
2019-04-21T20:44:05.870Z,105.73
2019-04-21T20:46:42.630Z,103.32
2019-04-21T20:49:06.990Z,98.42
2019-04-21T20:51:43.809Z,104.38
2019-04-21T20:54:16.096Z,106.15
2019-04-21T20:56:49.747Z,118.72
2019-04-21T20:59:25.015Z,114.52
2019-04-21T21:02:05.614Z,112.47
2019-04-21T21:04:30.226Z,115.83
2019-04-21T21:07:18.484Z,113.30
2019-04-21T21:09:50.108Z,110.97
2019-04-21T21:14:46.200Z,101.45
2019-04-21T21:17:39.292Z,93.67
2019-04-21T21:19:59.617Z,93.17
2019-04-21T21:22:29.648Z,99.20
2019-04-21T21:25:02.960Z,89.50
2019-04-21T21:27:38.125Z,93.15
2019-04-21T21:30:08.360Z,92.97
2019-04-21T21:32:52.371Z,94.10
2019-04-21T21:35:18.958Z,90.33
2019-04-21T21:37:58.734Z,93.30
2019-04-21T21:40:28.809Z,89.77
2019-04-21T21:42:45.685Z,89.70
2019-04-21T21:45:21.766Z,86.42
2019-04-21T21:48:06.995Z,88.87
2019-04-21T21:50:35.774Z,88.35
2019-04-21T21:53:07.757Z,95.10
2019-04-21T21:55:34.023Z,87.20
2019-04-21T21:58:06.392Z,87.02
2019-04-21T22:00:43.212Z,88.00
2019-04-21T22:03:23.327Z,87.15
2019-04-21T22:05:57.361Z,90.60
2019-04-21T22:08:22.591Z,88.35
2019-04-21T22:10:55.033Z,90.12
2019-04-21T22:13:35.981Z,84.87
2019-04-21T22:16:07.029Z,89.80
2019-04-21T22:18:56.567Z,84.42
2019-04-21T22:21:21.516Z,96.47
2019-04-21T22:23:51.650Z,85.62
2019-04-21T22:26:15.537Z,80.50
2019-04-21T22:28:47.645Z,72.45
2019-04-21T22:31:24.559Z,69.83
2019-04-21T22:33:58.735Z,72.32
2019-04-21T22:36:35.361Z,74.27
2019-04-21T22:39:20.907Z,81.20
2019-04-21T22:41:41.242Z,83.90
2019-04-21T22:44:10.285Z,81.77
2019-04-21T22:46:54.848Z,78.43
2019-04-21T22:49:17.863Z,79.00
2019-04-21T22:51:51.854Z,93.22
2019-04-21T22:54:31.469Z,81.10
2019-04-21T22:57:04.178Z,83.93
2019-04-21T22:59:30.545Z,81.57
2019-04-21T23:02:06.352Z,78.30
2019-04-21T23:04:43.856Z,62.95
2019-04-21T23:07:15.429Z,83.75
2019-04-21T23:09:45.473Z,78.67
2019-04-21T23:12:22.770Z,74.92
2019-04-21T23:15:01.194Z,86.60
2019-04-21T23:17:37.823Z,76.95
2019-04-21T23:20:19.515Z,73.87
2019-04-21T23:22:57.994Z,73.85
2019-04-21T23:25:24.782Z,68.15
2019-04-21T23:27:56.196Z,69.87
2019-04-21T23:30:37.673Z,69.42
2019-04-21T23:32:57.216Z,69.80
2019-04-21T23:35:30.451Z,71.62
2019-04-21T23:38:02.988Z,67.80
2019-04-21T23:43:09.708Z,70.60
2019-04-21T23:45:40.892Z,70.50
2019-04-21T23:48:26.071Z,71.00
2019-04-21T23:50:54.244Z,68.20
2019-04-21T23:53:19.584Z,74.50
2019-04-21T23:55:52.817Z,71.57
2019-04-21T23:58:27.949Z,85.07
